Tiempo atmosférico en la estación meteorológica de Sitges, Barcelona (54 m.)



Fecha
DESCASC
Temp. máxima en grados centígrados (hora)
DESCASC
Temp. mínima en grados centígrados (hora)
DESCASC
Temp. media en grados centígrados
DESCASC
Racha de viento máxima en m/sg (hora)
DESCASC
Velocidad máxima media en intervalos de 10 minutos(hora)
DESCASC
Precipitaciones diarias en mm
DESCASC
Precipitaciones de 00:00 a 06:00 en mm
DESCASC
Precipitaciones de 06:00 a 12:00 en mm
DESCASC
Precipitaciones de 12:00 a 18:00 en mm
DESCASC
Precipitaciones de 18:00 a 24:00 en mm
DESCASC
05-04-2020 -- (--) -- (--) -- -- (--) -- (--) -- 0 0 0 --
04-04-2020 17 (17:00) 7 (07:30) 12 6.67 (16:20) 2.78 (13:20) 0 0 0 0 0
03-04-2020 17.1 (16:30) 7.4 (07:00) 12.3 6.39 (17:10) 3.06 (09:30) 0 0 0 0 0
02-04-2020 14.2 (16:20) 10.1 (00:00) 12.2 13.89 (00:30) 6.67 (07:00) 0 0 0 0 0
01-04-2020 13 (00:40) 10.3 (00:00) 11.7 16.67 (14:00) 6.94 (14:20) 9 0 0.4 8 0.6
31-03-2020 13.1 (12:40) 7.7 (00:00) 10.4 13.06 (21:10) 5.83 (06:40) 2.2 0 0.2 2 0
30-03-2020 12.5 (04:30) 6.9 (00:00) 9.7 10.28 (05:00) 5 (06:50) 7 0 3.2 3.8 0
29-03-2020 19.4 (17:30) 7.9 (00:00) 13.6 7.5 (16:50) 4.72 (16:20) 0 0 0 0 0
28-03-2020 16.3 (13:40) 10 (00:00) 13.1 5.56 (01:20) 3.61 (12:20) 0 0 0 0 0
27-03-2020 15.3 (13:40) 2.9 (00:00) 9.1 6.67 (07:20) 3.89 (13:20) 0 0 0 0 0
26-03-2020 11.9 (16:20) 5.9 (00:00) 8.9 11.67 (13:30) 5.83 (13:40) 0 0 0 0 0
25-03-2020 12.8 (12:10) 6 (00:00) 9.4 8.61 (03:20) 3.89 (11:30) 0 0 0 0 0
24-03-2020 14.5 (12:00) 10.1 (00:00) 12.3 13.61 (15:00) 6.11 (14:30) 0 0 0 0 0
23-03-2020 16.5 (12:30) 12.4 (00:00) 14.4 11.67 (20:20) 5.83 (15:40) 0.4 0 0.4 0 0
22-03-2020 16.7 (11:00) 8.7 (06:40) 12.7 8.89 (13:50) 4.17 (18:00) 12.4 0 0 0 12.4
21-03-2020 16.6 (11:20) 7.3 (00:00) 12 7.22 (10:40) 5 (12:20) 0 0 0 0 0
20-03-2020 15.6 (11:50) 7.3 (00:00) 11.5 9.17 (15:20) 4.72 (15:10) 0 0 0 0 0
19-03-2020 15 (14:20) 7.2 (00:00) 11.1 5.83 (12:40) 3.61 (12:40) 0 0 0 0 0
18-03-2020 16.9 (15:00) 8.7 (00:00) 12.8 7.5 (15:00) 4.17 (15:20) 0 0 0 0 0
17-03-2020 17.5 (16:00) 11.8 (00:00) 14.7 13.89 (01:50) 6.39 (02:20) 0.2 0 0 0.2 0
16-03-2020 14.7 (10:40) 13 (00:00) 13.8 14.17 (10:30) 6.94 (12:30) 34.4 0 1.8 30.8 1.8
15-03-2020 16.8 (13:10) 8.4 (00:00) 12.6 6.39 (16:20) 4.17 (16:20) 0 0 0 0 0
14-03-2020 16.9 (14:10) 9.1 (00:00) 13 5.28 (07:10) 2.5 (13:50) 0 0 0 0 0
13-03-2020 17.8 (13:00) 9.1 (06:30) 13.4 8.61 (17:50) 4.17 (17:50) 0 0 0 0 0
12-03-2020 18.9 (12:20) 9.6 (00:00) 14.3 5 (14:30) 2.5 (12:50) 0 0 0 0 0
11-03-2020 16.3 (16:10) 7.9 (00:00) 12.1 5.83 (11:50) 3.61 (11:50) 0 0 0 0 0
10-03-2020 15.4 (13:00) 8.8 (00:00) 12.1 8.33 (01:20) 4.72 (05:30) 0 0 0 0 0
09-03-2020 19.7 (15:30) 8 (00:00) 13.9 10.28 (13:00) 5.28 (12:10) 0 0 0 0 0
08-03-2020 16.5 (14:50) 6.9 (00:00) 11.7 6.67 (17:10) 3.61 (17:10) 0 0 0 0 0

Gráficas

Temp. máximas Temp. mínimas Temp. medias Precipitaciones Rachas de viento máximas Velocidades máximas media en intervalos de 10 minutos

Datos horarios

Fecha y hora oficial Temperatura (ºC) Velocidad del viento (km/h) Dirección del viento Racha (km/h) Dirección de racha Precipitación (mm) Presión (hPa) Tendencia (hPa) Humedad (%)
2020-04-06 23:00:00 -- -- -- -- -- -- -- -- --
2020-04-06 22:00:00 -- -- -- -- -- -- -- -- --
2020-04-06 21:00:00 -- -- -- -- -- -- -- -- --
2020-04-06 20:00:00 -- -- -- -- -- -- -- -- --
2020-04-06 19:00:00 15.5 2 Sur 12 Sur 0 -- -- 78
2020-04-06 18:00:00 15.9 6 Sur 13 Sur 0 -- -- 79
2020-04-06 17:00:00 16 9 Sur 18 Sur 0 -- -- 78
2020-04-06 16:00:00 16.5 9 Sur 17 Sur 0 -- -- 76
2020-04-06 15:00:00 16.5 12 Sur 18 Sur 0 -- -- 77
2020-04-06 14:00:00 16.5 10 Sur 17 Sur 0 -- -- 75
2020-04-06 13:00:00 16.4 10 Sur 15 Sur 0 -- -- 74
2020-04-06 12:00:00 15.8 9 Sudeste 15 Sur 0 -- -- 74
2020-04-06 11:00:00 15.6 10 Sur 14 Sur 0 -- -- 72
2020-04-06 10:00:00 14.6 5 Sur 9 Sudeste 0 -- -- 79
2020-04-06 09:00:00 11.4 0 Calma 2 Sur 0 -- -- 100
2020-04-06 08:00:00 8.6 0 Calma 2 Noroeste 0 -- -- 99
2020-04-06 07:00:00 8.2 0 Calma 4 Norte 0 -- -- 98
2020-04-06 06:00:00 8.5 0 Calma 3 Norte 0 -- -- 98
2020-04-06 05:00:00 8.9 2 Norte 3 Noroeste 0 -- -- 98
2020-04-06 04:00:00 9.1 0 Calma 4 Noroeste 0 -- -- 98
2020-04-06 03:00:00 8.9 0 Calma 3 Norte 0 -- -- 98
2020-04-06 02:00:00 8.8 0 Calma 3 Noroeste 0 -- -- 97
2020-04-06 01:00:00 8.7 0 Calma 4 Norte 0 -- -- 97
2020-04-06 00:00:00 8.9 2 Noroeste 4 Noroeste 0 -- -- 97
2020-04-05 23:00:00 8.8 2 Noroeste 2 Oeste 0 -- -- 95
2020-04-05 22:00:00 9.2 0 Calma 4 Noroeste 0 -- -- 93
2020-04-05 21:00:00 10.5 0 Calma 5 Norte 0 -- -- 91
2020-04-05 20:00:00 12.3 3 Noroeste 8 Norte 0 -- -- 84
2020-04-05 19:00:00 15 3 Noroeste 13 Noroeste 0 -- -- 73
2020-04-05 18:00:00 16.4 5 Sur 13 Sudeste 0 -- -- 72
2020-04-05 17:00:00 16.4 8 Sur 14 Sur 0 -- -- 72
2020-04-05 16:00:00 16.8 7 Sur 19 Sur 0 -- -- 68
2020-04-05 15:00:00 16.7 8 Sur 19 Sudeste 0 -- -- 70
2020-04-05 14:00:00 17.1 8 Sur 15 Sur 0 -- -- 69
2020-04-05 13:00:00 16.4 9 Sur 15 Sur 0 -- -- 70
2020-04-05 12:00:00 15.8 6 Oeste 14 Oeste 0 -- -- 65
2020-04-05 11:00:00 16.1 5 Sudoeste 13 Sudoeste 0 -- -- 59
2020-04-05 10:00:00 14.5 3 Sudeste 5 Sudeste 0 -- -- 76
2020-04-05 09:00:00 10 0 Calma 3 Sur 0 -- -- 93
2020-04-05 08:00:00 6.8 0 Calma 4 Noroeste 0 -- -- 96
2020-04-05 07:00:00 7.2 0 Calma 3 Norte 0 -- -- 95
2020-04-05 06:00:00 8.1 0 Calma 3 Noroeste 0 -- -- 95
2020-04-05 05:00:00 8.9 0 Calma 14 Noroeste 0 -- -- 94
2020-04-05 04:00:00 9.6 4 Noroeste 13 Noroeste 0 -- -- 96
2020-04-05 03:00:00 9.4 2 Oeste 9 Noroeste 0 -- -- 98
2020-04-05 02:00:00 9.2 2 Noroeste 3 Noroeste 0 -- -- 98
2020-04-05 01:00:00 9.3 0 Calma 3 Noroeste 0 -- -- 97
2020-04-05 00:00:00 9.7 0 Calma 5 Norte 0 -- -- 96
2020-04-04 23:00:00 9.9 0 Calma 4 Norte 0 -- -- 94
2020-04-04 22:00:00 10.6 0 Calma 6 Noroeste 0 -- -- 93
2020-04-04 21:00:00 11.3 3 Noroeste 9 Oeste 0 -- -- 89
2020-04-04 20:00:00 13.4 3 Noroeste 16 Noroeste 0 -- -- 84
2020-04-04 19:00:00 15.1 2 Oeste 13 Norte 0 -- -- 75
2020-04-04 18:00:00 16.5 4 Norte 15 Norte 0 -- -- 72
2020-04-04 17:00:00 17 5 Norte 24 Sur 0 -- -- 64
2020-04-04 16:00:00 15.5 6 Sudeste 20 Norte 0 -- -- 71
2020-04-04 15:00:00 15.6 6 Noroeste 17 Sudoeste 0 -- -- 72
2020-04-04 14:00:00 15.4 8 Sudoeste 23 Sur 0 -- -- 71
2020-04-04 13:00:00 15.4 9 Sudoeste 19 Sudoeste 0 -- -- 68
2020-04-04 12:00:00 15.8 6 Oeste 15 Sur 0 -- -- 63
2020-04-04 11:00:00 15.6 7 Sudoeste 13 Sudoeste 0 -- -- 58
2020-04-04 10:00:00 14.3 4 Sur 8 Sur 0 -- -- 73
2020-04-04 09:00:00 10.3 0 Calma 2 Sudeste 0 -- -- 87
2020-04-04 08:00:00 7.1 0 Calma 3 Noroeste 0 -- -- 92
2020-04-04 07:00:00 7.2 2 Noroeste 3 Noroeste 0 -- -- 92
2020-04-04 06:00:00 7.3 0 Calma 3 Noroeste 0 -- -- 96
2020-04-04 05:00:00 7.4 0 Calma 3 Noroeste 0 -- -- 96
2020-04-04 04:00:00 7.9 0 Calma 2 Norte 0 -- -- 96
2020-04-04 03:00:00 7.9 0 Calma 2 Norte 0 -- -- 96
2020-04-04 02:00:00 8.1 0 Calma 3 Noroeste 0 -- -- 95
2020-04-04 01:00:00 8.5 0 Calma 2 Noroeste 0 -- -- 95
2020-04-04 00:00:00 8.8 0 Calma 4 Noroeste 0 -- -- 93
2020-04-03 23:00:00 9.1 0 Calma 4 Noroeste 0 -- -- 91
2020-04-03 22:00:00 9.6 2 Noroeste 4 Noroeste 0 -- -- 88
2020-04-03 21:00:00 10.4 0 Calma 9 Norte 0 -- -- 83
2020-04-03 20:00:00 12 0 Calma 9 Norte 0 -- -- 76
2020-04-03 19:00:00 14.5 3 Sur 10 Norte 0 -- -- 63
2020-04-03 18:00:00 15.8 6 Sudeste 23 Oeste 0 -- -- 54
2020-04-03 17:00:00 16.3 9 Sur 17 Sudeste 0 -- -- 52
2020-04-03 16:00:00 16.2 6 Este 20 Oeste 0 -- -- 55
2020-04-03 15:00:00 16.6 6 Este 19 Sudeste 0 -- -- 64
2020-04-03 14:00:00 16.5 7 Nordeste 20 Sudoeste 0 -- -- 69
2020-04-03 13:00:00 15.5 6 Oeste 15 Sudoeste 0 -- -- 68
2020-04-03 12:00:00 13.9 7 Oeste 18 Sudoeste 0 -- -- 77
2020-04-03 11:00:00 14.6 4 Sur 10 Sur 0 -- -- 72
2020-04-03 10:00:00 13.3 7 Sur 17 Sudeste 0 -- -- 79
2020-04-03 09:00:00 12.7 3 Sur 14 Noroeste 0 -- -- 76
2020-04-03 08:00:00 10.1 4 Noroeste 13 Oeste 0 -- -- 87
2020-04-03 07:00:00 7.4 3 Sur 8 Noroeste 0 -- -- 95
2020-04-03 06:00:00 8 0 Calma 6 Norte 0 -- -- 95
2020-04-03 05:00:00 8.4 2 Sudoeste 7 Noroeste 0 -- -- 93
2020-04-03 04:00:00 8.5 0 Calma 4 Norte 0 -- -- 93
2020-04-03 03:00:00 9.1 2 Norte 4 Norte 0 -- -- 91
2020-04-03 02:00:00 10 0 Calma 5 Norte 0 -- -- 88
2020-04-03 01:00:00 10.2 2 Norte 4 Noroeste 0 -- -- 87
2020-04-03 00:00:00 10.1 0 Calma 4 Norte 0 -- -- 85
2020-04-02 23:00:00 10.7 0 Calma 5 Sudeste 0 -- -- 82
2020-04-02 22:00:00 11.7 0 Calma 16 Sudeste 0 -- -- 76
2020-04-02 21:00:00 12.3 4 Este 20 Este 0 -- -- 74
2020-04-02 20:00:00 12.6 9 Sudeste 33 Sudeste 0 -- -- 70
2020-04-02 19:00:00 13 14 Sudeste 33 Sudeste 0 -- -- 67
2020-04-02 18:00:00 13.5 14 Sudeste 34 Sudeste 0 -- -- 66
2020-04-02 17:00:00 13.9 10 Sudeste 28 Sudeste 0 -- -- 66
2020-04-02 16:00:00 13.7 13 Sudeste 23 Este 0 -- -- 66
2020-04-02 15:00:00 13.3 6 Sudeste 22 Sudeste 0 -- -- 70
2020-04-02 14:00:00 12.8 12 Sur 22 Sudeste 0 -- -- 69
2020-04-02 13:00:00 12.6 5 Sudeste 24 Este 0 -- -- 65
2020-04-02 12:00:00 12.6 10 Sudeste 34 Sudeste 0 -- -- 65
2020-04-02 11:00:00 12.4 17 Sur 38 Sudeste 0 -- -- 67
2020-04-02 10:00:00 11.8 8 Sudeste 25 Sur 0 -- -- 69
2020-04-02 09:00:00 11.7 6 Sur 28 Sur 0 -- -- 73
2020-04-02 08:00:00 11.3 11 Sur 45 Sudeste 0 -- -- 75
2020-04-02 07:00:00 11.4 24 Sur 46 Sudeste 0 -- -- 75
2020-04-02 06:00:00 11.3 17 Sur 47 Sudeste 0 -- -- 76
2020-04-02 05:00:00 11 18 Sudeste 41 Sudeste 0 -- -- 79
2020-04-02 04:00:00 11.1 18 Sur 42 Sudeste 0 -- -- 79
2020-04-02 03:00:00 10.9 20 Sur 46 Sur 0 -- -- 80
2020-04-02 02:00:00 11 19 Sudeste 42 Sudeste 0 -- -- 80
2020-04-02 01:00:00 11 16 Sudeste 50 Sudeste 0 -- -- 81
2020-04-02 00:00:00 10.9 16 Sudeste 48 Este 0 -- -- 84
2020-04-01 23:00:00 10.7 18 Sudeste 48 Este 0 -- -- 87
2020-04-01 22:00:00 10.6 20 Sudeste 50 Sudeste 0 -- -- 88
2020-04-01 21:00:00 10.3 19 Este 50 Este 0 -- -- 90
2020-04-01 20:00:00 10.3 19 Sudeste 46 Sudeste 0.2 -- -- 91
2020-04-01 19:00:00 10.6 22 Sudeste 50 Sudeste 0.4 -- -- 90
2020-04-01 18:00:00 10.7 19 Sudeste 56 Este 1.6 -- -- 90
2020-04-01 17:00:00 10.6 18 Sudeste 52 Sudeste 3.4 -- -- 92
2020-04-01 16:00:00 10.7 21 Sudeste 55 Sudeste 2.8 -- -- 93
2020-04-01 15:00:00 11.6 22 Sudeste 50 Sudeste 0.2 -- -- 88
2020-04-01 14:00:00 12.8 21 Sudeste 60 Este 0 -- -- 79
2020-04-01 13:00:00 12.5 24 Este 53 Sudeste 0 -- -- 82
2020-04-01 12:00:00 12.4 21 Este 46 Este 0 -- -- 84
2020-04-01 11:00:00 11.9 22 Sudeste 45 Sudeste 0 -- -- 84
2020-04-01 10:00:00 11.6 22 Sudeste 48 Sudeste 0 -- -- 86
2020-04-01 09:00:00 11.4 19 Sudeste 50 Este 0.2 -- -- 86
2020-04-01 08:00:00 11.6 23 Sudeste 45 Sur 0.2 -- -- 87
2020-04-01 07:00:00 12 21 Sudeste 47 Este 0 -- -- 87
2020-04-01 06:00:00 12.3 18 Sudeste 45 Sudeste 0 -- -- 86
2020-04-01 05:00:00 12.7 17 Sudeste 41 Sudeste 0 -- -- 83
2020-04-01 04:00:00 12.9 19 Sudeste 39 Sudeste 0 -- -- 81
2020-04-01 03:00:00 12.9 16 Sudeste 41 Sudeste 0 -- -- 84
2020-04-01 02:00:00 12.9 13 Sudeste 36 Sudeste 0 -- -- 82
2020-04-01 01:00:00 13 17 Sudeste 43 Este 0 -- -- 78
2020-04-01 00:00:00 12.8 15 Sudeste 40 Este 0 -- -- 76
2020-03-31 23:00:00 12.8 18 Sudeste 37 Sudeste 0 -- -- 74
2020-03-31 22:00:00 12.7 15 Sudeste 47 Sudeste 0 -- -- 75
2020-03-31 21:00:00 12.5 17 Sudeste 44 Este 0 -- -- 74
2020-03-31 20:00:00 12.3 14 Sudeste 40 Sudeste 0 -- -- 73
2020-03-31 19:00:00 12.4 16 Sudeste 43 Sudeste 0 -- -- 75
2020-03-31 18:00:00 12.4 16 Sudeste 42 Sudeste 0.2 -- -- 75
2020-03-31 17:00:00 11.9 19 Este 42 Sudeste 0.6 -- -- 79
2020-03-31 16:00:00 11.9 19 Sudeste 37 Sudeste 0.6 -- -- 77
2020-03-31 15:00:00 11.7 15 Sudeste 38 Sudeste 0.2 -- -- 78
2020-03-31 14:00:00 11.6 13 Sudeste 36 Este 0.4 -- -- 79
2020-03-31 13:00:00 12.8 15 Sudeste 35 Sudeste 0 -- -- 69
2020-03-31 12:00:00 12.8 13 Sudeste 36 Sudeste 0 -- -- 67
2020-03-31 11:00:00 11.5 14 Sudeste 44 Sudeste 0 -- -- 71
2020-03-31 10:00:00 10.6 15 Sudeste 39 Sur 0 -- -- 72
2020-03-31 09:00:00 10 15 Sudeste 35 Sudeste 0.2 -- -- 75
2020-03-31 08:00:00 10.4 15 Sudeste 34 Este 0 -- -- 70
2020-03-31 07:00:00 10.2 13 Sudeste 43 Sudeste 0 -- -- 70
2020-03-31 06:00:00 10.1 14 Sudeste 35 Sudeste 0 -- -- 68
2020-03-31 05:00:00 10 15 Sudeste 34 Sudeste 0 -- -- 71
2020-03-31 04:00:00 10 17 Sudeste 35 Sudeste 0 -- -- 73
2020-03-31 03:00:00 9.7 9 Sudeste 23 Sudeste 0 -- -- 76
2020-03-31 02:00:00 9.3 6 Sudeste 21 Sudeste 0 -- -- 78
2020-03-31 01:00:00 7.7 0 Calma 4 Noroeste 0 -- -- 93
2020-03-31 00:00:00 8 2 Sur 12 Norte 0 -- -- 87
2020-03-30 23:00:00 8.2 6 Norte 16 Norte 0 -- -- 82
2020-03-30 22:00:00 7.7 0 Calma 19 Noroeste 0 -- -- 86
2020-03-30 21:00:00 7.5 8 Noroeste 16 Norte 0 -- -- 84
2020-03-30 20:00:00 7.3 13 Noroeste 24 Noroeste 0 -- -- 83
2020-03-30 19:00:00 6.9 9 Noroeste 22 Noroeste 0 -- -- 86
2020-03-30 18:00:00 6.9 6 Noroeste 24 Noroeste 1.2 -- -- 89
2020-03-30 17:00:00 7.7 5 Noroeste 16 Noroeste 0 -- -- 86
2020-03-30 16:00:00 7.4 7 Noroeste 21 Noroeste 0.4 -- -- 87
2020-03-30 15:00:00 8 11 Noroeste 30 Noroeste 0.8 -- -- 86
2020-03-30 14:00:00 9.1 10 Noroeste 22 Oeste 1 -- -- 87
2020-03-30 13:00:00 10.8 0 Calma 3 Sudoeste 0.4 -- -- 91
2020-03-30 12:00:00 10.8 0 Calma 9 Sudeste 0.4 -- -- 89
2020-03-30 11:00:00 10.7 4 Sur 16 Sudeste 0 -- -- 91
2020-03-30 10:00:00 10.5 8 Este 21 Sudeste 1.6 -- -- 91
2020-03-30 09:00:00 10.6 3 Oeste 26 Sudeste 1.2 -- -- 90
2020-03-30 08:00:00 11.4 9 Sudeste 31 Sudeste 0 -- -- 79
2020-03-30 07:00:00 11.3 16 Sudeste 35 Sudeste 0 -- -- 79
2020-03-30 06:00:00 11.5 12 Sudeste 31 Sudeste 0 -- -- 80
2020-03-30 05:00:00 12.2 15 Sudeste 37 Sudeste 0 -- -- 78
2020-03-30 04:00:00 10.9 0 Calma 9 Noroeste 0 -- -- 90
2020-03-30 03:00:00 10 3 Sudeste 6 Nordeste 0 -- -- 91
2020-03-30 02:00:00 10.1 0 Calma 4 Norte 0 -- -- 91
2020-03-30 01:00:00 10.5 0 Calma 3 Noroeste 0 -- -- 89
2020-03-30 00:00:00 11.1 0 Calma 4 Norte 0 -- -- 87
2020-03-29 23:00:00 11.6 0 Calma 6 Noroeste 0 -- -- 85
2020-03-29 22:00:00 12.2 2 Noroeste 8 Noroeste 0 -- -- 83
2020-03-29 21:00:00 12.7 2 Noroeste 6 Noroeste 0 -- -- 80
2020-03-29 20:00:00 14 0 Calma 9 Sur 0 -- -- 73
2020-03-29 19:00:00 15.8 3 Norte 26 Norte 0 -- -- 64
2020-03-29 18:00:00 18.5 11 Norte 25 Nordeste 0 -- -- 57
2020-03-29 17:00:00 18.9 14 Norte 27 Norte 0 -- -- 44
2020-03-29 16:00:00 18.7 14 Norte 27 Norte 0 -- -- 48
2020-03-29 15:00:00 18.5 12 Norte 23 Norte 0 -- -- 49
2020-03-29 14:00:00 18 11 Norte 18 Noroeste 0 -- -- 49
2020-03-29 13:00:00 17.6 6 Oeste 21 Sudoeste 0 -- -- 57
2020-03-29 12:00:00 16.6 9 Sudoeste 17 Sudoeste 0 -- -- 51
2020-03-29 11:00:00 16 8 Sudeste 11 Sudeste 0 -- -- 68
2020-03-29 10:00:00 15.8 3 Sur 5 Sur 0 -- -- 59
2020-03-29 09:00:00 10.7 0 Calma 3 Norte 0 -- -- 78
2020-03-29 08:00:00 8.4 0 Calma 3 Norte 0 -- -- 81
2020-03-29 07:00:00 8.2 0 Calma 3 Noroeste 0 -- -- 81
2020-03-29 06:00:00 7.9 0 Calma 3 Noroeste 0 -- -- 85
2020-03-29 05:00:00 8.6 0 Calma 4 Noroeste 0 -- -- 84
2020-03-29 03:00:00 12.2 8 Noroeste 20 Noroeste 0 -- -- 83
2020-03-29 01:00:00 12.4 11 Noroeste 20 Noroeste 0 -- -- 80
2020-03-29 00:00:00 12.5 11 Noroeste 17 Noroeste 0 -- -- 73
2020-03-28 23:00:00 12.4 8 Noroeste 16 Norte 0 -- -- 72
2020-03-28 22:00:00 13 6 Noroeste 15 Noroeste 0 -- -- 67
2020-03-28 21:00:00 12.7 5 Noroeste 12 Noroeste 0 -- -- 74
2020-03-28 20:00:00 12.3 5 Noroeste 9 Noroeste 0 -- -- 76
2020-03-28 19:00:00 12.9 4 Norte 10 Norte 0 -- -- 71
2020-03-28 18:00:00 14.4 5 Norte 11 Norte 0 -- -- 64
2020-03-28 17:00:00 15.6 5 Norte 14 Norte 0 -- -- 59
2020-03-28 16:00:00 16.2 7 Noroeste 17 Sudeste 0 -- -- 57
2020-03-28 15:00:00 15.8 10 Sudeste 20 Sur 0 -- -- 56
2020-03-28 14:00:00 16.2 9 Sur 16 Sur 0 -- -- 55
2020-03-28 13:00:00 15.6 7 Sur 17 Sur 0 -- -- 53
2020-03-28 12:00:00 16.1 10 Sur 16 Sur 0 -- -- 52
2020-03-28 11:00:00 15.7 12 Sur 17 Sur 0 -- -- 51
2020-03-28 10:00:00 15.5 10 Sur 16 Sur 0 -- -- 50
2020-03-28 09:00:00 13.6 6 Noroeste 11 Norte 0 -- -- 52
2020-03-28 08:00:00 11.6 5 Nordeste 11 Nordeste 0 -- -- 59
2020-03-28 07:00:00 10 0 Calma 13 Noroeste 0 -- -- 67
2020-03-28 06:00:00 11 7 Norte 17 Noroeste 0 -- -- 61
2020-03-28 05:00:00 11.3 8 Noroeste 16 Norte 0 -- -- 59
2020-03-28 04:00:00 10.8 6 Norte 16 Noroeste 0 -- -- 61
2020-03-28 03:00:00 11 9 Norte 19 Noroeste 0 -- -- 61
2020-03-28 02:00:00 11.5 10 Noroeste 20 Noroeste 0 -- -- 59
2020-03-28 01:00:00 10.8 7 Noroeste 18 Noroeste 0 -- -- 65
2020-03-28 00:00:00 10.3 4 Noroeste 17 Norte 0 -- -- 70
2020-03-27 23:00:00 10.1 7 Norte 14 Norte 0 -- -- 71
2020-03-27 22:00:00 9.9 5 Norte 12 Norte 0 -- -- 73
2020-03-27 21:00:00 8.9 0 Calma 5 Noroeste 0 -- -- 82
2020-03-27 20:00:00 9.9 0 Calma 5 Noroeste 0 -- -- 77
2020-03-27 19:00:00 11.9 0 Calma 4 Sudeste 0 -- -- 63
2020-03-27 18:00:00 12.7 0 Calma 14 Noroeste 0 -- -- 55
2020-03-27 17:00:00 13 6 Norte 15 Noroeste 0 -- -- 56
2020-03-27 16:00:00 13.3 6 Sudeste 18 Sur 0 -- -- 53
2020-03-27 15:00:00 14.9 4 Nordeste 15 Sur 0 -- -- 52
2020-03-27 14:00:00 13.7 6 Noroeste 23 Sudeste 0 -- -- 44
2020-03-27 13:00:00 14.7 5 Este 18 Sudoeste 0 -- -- 43
2020-03-27 12:00:00 15 7 Sur 17 Norte 0 -- -- 38
2020-03-27 11:00:00 14 6 Sur 22 Noroeste 0 -- -- 41
2020-03-27 10:00:00 12.3 6 Norte 20 Noroeste 0 -- -- 49
2020-03-27 09:00:00 10.4 9 Noroeste 23 Noroeste 0 -- -- 54
2020-03-27 08:00:00 7.8 11 Norte 24 Norte 0 -- -- 63
2020-03-27 07:00:00 6.3 12 Norte 19 Norte 0 -- -- 68
2020-03-27 06:00:00 2.9 0 Calma 4 Sur 0 -- -- 88
2020-03-27 05:00:00 3.2 0 Calma 3 Noroeste 0 -- -- 89
2020-03-27 04:00:00 3.6 0 Calma 2 Noroeste 0 -- -- 88
2020-03-27 03:00:00 4.5 0 Calma 5 Nordeste 0 -- -- 83
2020-03-27 02:00:00 6.2 2 Este 10 Norte 0 -- -- 77
2020-03-27 01:00:00 5.1 0 Calma 4 Sur 0 -- -- 81
2020-03-27 00:00:00 6.8 2 Norte 9 Este 0 -- -- 73
2020-03-26 23:00:00 8.6 4 Sur 23 Sur -- -- -- 64
2020-03-26 22:00:00 9 9 Sur 30 Sudeste 0 -- -- 61
2020-03-26 21:00:00 9 9 Sur 19 Sudeste 0 -- -- 63
2020-03-26 20:00:00 9.3 7 Sudeste 22 Sudeste 0 -- -- 64
2020-03-26 19:00:00 9.1 11 Sudeste 33 Este 0 -- -- 69
2020-03-26 18:00:00 10 13 Sudeste 42 Sudeste 0 -- -- 65
2020-03-26 17:00:00 11.4 13 Sudeste 36 Sur 0 -- -- 61
2020-03-26 16:00:00 11.5 14 Sudeste 40 Sudeste 0 -- -- 61
2020-03-26 15:00:00 10.8 19 Sudeste 36 Sudeste 0 -- -- 65
2020-03-26 14:00:00 10.7 14 Sudeste 42 Sudeste 0 -- -- 67
2020-03-26 13:00:00 10.7 19 Sudeste 39 Sudeste 0 -- -- 67
2020-03-26 12:00:00 11.3 14 Sur 36 Sur 0 -- -- 65
2020-03-26 11:00:00 11.4 8 Sudeste 18 Sudeste 0 -- -- 62
2020-03-26 10:00:00 10.7 9 Sudeste 21 Sudeste 0 -- -- 61
2020-03-26 09:00:00 10 10 Sur 19 Sur 0 -- -- 67
2020-03-26 08:00:00 9 6 Noroeste 14 Norte 0 -- -- 71
2020-03-26 07:00:00 7.1 8 Norte 15 Norte 0 -- -- 75
2020-03-26 06:00:00 7.6 7 Norte 19 Norte 0 -- -- 71
2020-03-26 05:00:00 7.5 8 Norte 14 Noroeste 0 -- -- 75
2020-03-26 04:00:00 6.5 6 Norte 12 Norte 0 -- -- 82
2020-03-26 03:00:00 6.8 4 Noroeste 14 Norte 0 -- -- 80
2020-03-26 02:00:00 6.1 4 Noroeste 9 Noroeste 0 -- -- 83
2020-03-26 01:00:00 6.1 3 Noroeste 6 Norte 0 -- -- 81
2020-03-26 00:00:00 6.1 3 Noroeste 7 Noroeste 0 -- -- 77
2020-03-25 23:00:00 6 4 Noroeste 11 Noroeste 0 -- -- 77
2020-03-25 22:00:00 6.3 6 Noroeste 9 Noroeste 0 -- -- 77
2020-03-25 21:00:00 6.5 2 Noroeste 4 Norte 0 -- -- 76
2020-03-25 20:00:00 7.3 4 Noroeste 7 Norte 0 -- -- 72
2020-03-25 19:00:00 9.8 4 Norte 9 Norte 0 -- -- 62
2020-03-25 18:00:00 11 0 Calma 8 Sur 0 -- -- 54
2020-03-25 17:00:00 11.6 2 Noroeste 14 Noroeste 0 -- -- 53
2020-03-25 16:00:00 11.5 3 Norte 14 Sudeste 0 -- -- 53
2020-03-25 15:00:00 11.7 5 Sudeste 16 Sur 0 -- -- 48
2020-03-25 14:00:00 11.4 10 Sur 27 Sur 0 -- -- 53
2020-03-25 13:00:00 12.2 13 Sudeste 23 Sudeste 0 -- -- 57
2020-03-25 12:00:00 12.6 7 Noroeste 24 Noroeste 0 -- -- 53
2020-03-25 11:00:00 10.5 12 Noroeste 22 Noroeste 0 -- -- 56
2020-03-25 10:00:00 8.7 3 Noroeste 18 Sur 0 -- -- 67
2020-03-25 09:00:00 9 8 Sudeste 26 Sudeste 0 -- -- 54
2020-03-25 08:00:00 9.3 10 Sudeste 29 Sudeste 0 -- -- 53
2020-03-25 07:00:00 9.2 8 Sur 18 Sudeste 0 -- -- 55
2020-03-25 06:00:00 9.3 3 Sudoeste 15 Sudeste 0 -- -- 56
2020-03-25 05:00:00 9.3 6 Sur 28 Sudeste 0 -- -- 56
2020-03-25 04:00:00 9.4 8 Sudeste 31 Sur 0 -- -- 59
2020-03-25 03:00:00 9.5 11 Sur 29 Sudeste 0 -- -- 60
2020-03-25 02:00:00 9.6 6 Sudeste 25 Sudeste 0 -- -- 63
2020-03-25 01:00:00 9.7 6 Sudeste 18 Sudeste 0 -- -- 64
2020-03-25 00:00:00 10.2 5 Este 21 Sudeste 0 -- -- 64
2020-03-24 23:00:00 10.3 7 Sudeste 25 Este 0 -- -- 65
2020-03-24 22:00:00 10.8 5 Sudeste 28 Sudeste 0 -- -- 65
2020-03-24 21:00:00 10.9 11 Sudeste 35 Este 0 -- -- 66
2020-03-24 20:00:00 11.3 11 Sudeste 34 Sudeste 0 -- -- 68
2020-03-24 19:00:00 11.5 17 Sudeste 35 Sudeste 0 -- -- 68
2020-03-24 18:00:00 11.8 16 Sudeste 40 Este 0 -- -- 69
2020-03-24 17:00:00 12.1 19 Sudeste 38 Sudeste 0 -- -- 73
2020-03-24 16:00:00 13.1 14 Sur 41 Sudeste 0 -- -- 70
2020-03-24 15:00:00 13.6 18 Sudeste 49 Sudeste 0 -- -- 68
2020-03-24 14:00:00 13.5 17 Sudeste 45 Sudeste 0 -- -- 63
2020-03-24 13:00:00 14.1 15 Sudeste 41 Sudeste 0 -- -- 63
2020-03-24 12:00:00 14.5 15 Sudeste 42 Este 0 -- -- 62
2020-03-24 11:00:00 14.3 19 Sudeste 38 Sudeste 0 -- -- 58
2020-03-24 10:00:00 13.9 13 Sudeste 32 Sur 0 -- -- 63
2020-03-24 09:00:00 12.7 15 Sudeste 33 Este 0 -- -- 70
2020-03-24 08:00:00 11.6 10 Este 28 Este 0 -- -- 73
2020-03-24 07:00:00 11.1 8 Sudeste 25 Sudeste 0 -- -- 74
2020-03-24 06:00:00 11.4 7 Sudeste 27 Sudeste 0 -- -- 77
2020-03-24 05:00:00 11.8 9 Este 32 Sudeste 0 -- -- 79
2020-03-24 04:00:00 12.1 13 Sudeste 32 Sudeste 0 -- -- 77
2020-03-24 03:00:00 12 10 Sudeste 30 Sudeste 0 -- -- 78
2020-03-24 02:00:00 12.3 9 Sudeste 23 Sudeste 0 -- -- 78
2020-03-24 01:00:00 12.6 10 Sudeste 27 Este 0 -- -- 79
2020-03-24 00:00:00 12.8 13 Sudeste 33 Sudeste 0 -- -- 80
2020-03-23 23:00:00 13.1 13 Este 37 Este 0 -- -- 80
2020-03-23 22:00:00 13.2 16 Sudeste 42 Este 0 -- -- 83
2020-03-23 21:00:00 13.5 14 Sudeste 42 Sudeste 0 -- -- 79
2020-03-23 20:00:00 13.7 17 Sudeste 36 Sur 0 -- -- 76
2020-03-23 19:00:00 13.6 12 Sudeste 36 Sudeste 0 -- -- 82
2020-03-23 18:00:00 14.4 14 Sudeste 34 Sudeste 0 -- -- 78
2020-03-23 17:00:00 15.5 16 Sudeste 38 Sudeste 0 -- -- 73
2020-03-23 16:00:00 16.1 18 Sudeste 37 Sudeste 0 -- -- 73
2020-03-23 15:00:00 16.3 17 Sudeste 35 Sudeste 0 -- -- 73
2020-03-23 14:00:00 16.2 16 Sudeste 27 Sudeste 0 -- -- 75
2020-03-23 13:00:00 14.9 13 Sudeste 27 Sudeste 0 -- -- 80
2020-03-23 12:00:00 14.8 10 Sudeste 21 Sudeste 0 -- -- 77
2020-03-23 11:00:00 16.1 9 Sudeste 23 Sur 0 -- -- 81
2020-03-23 10:00:00 14.1 12 Sudeste 29 Sudeste 0 -- -- 86
2020-03-23 09:00:00 12.7 9 Sudeste 29 Sudeste 0.4 -- -- 85
2020-03-23 08:00:00 13 12 Sudeste 29 Sudeste 0 -- -- 88
2020-03-23 07:00:00 13 10 Sudeste 26 Sudeste 0 -- -- 85
2020-03-23 06:00:00 13 8 Sudeste 23 Sur 0 -- -- 85
2020-03-23 05:00:00 12.7 6 Sur 14 Sur 0 -- -- 87
2020-03-23 04:00:00 12.6 5 Sudoeste 15 Sur 0 -- -- 89
2020-03-23 03:00:00 12.9 5 Sudeste 22 Sur 0 -- -- 87
2020-03-23 02:00:00 12.7 5 Sur 15 Sur 0 -- -- 87
2020-03-23 01:00:00 12.9 4 Este 20 Sudeste 0 -- -- 84
2020-03-23 00:00:00 12.8 4 Sur 18 Sudeste 0 -- -- 89
2020-03-22 23:00:00 13 7 Sudeste 24 Este 0 -- -- 87
2020-03-22 22:00:00 12.9 9 Sudeste 22 Sudeste 0.2 -- -- 85
2020-03-22 21:00:00 13.1 9 Sudeste 22 Sudeste 0.6 -- -- 89
2020-03-22 20:00:00 12.4 3 Este 17 Sur 11.6 -- -- 95
2020-03-22 19:00:00 13.3 12 Sur 28 Sudeste 0 -- -- 84
2020-03-22 18:00:00 14.4 15 Sudeste 28 Sudeste 0 -- -- 85
2020-03-22 17:00:00 15.1 10 Este 27 Sudeste 0 -- -- 83
2020-03-22 16:00:00 14.9 12 Sudeste 32 Sudeste 0 -- -- 83
2020-03-22 15:00:00 15.1 14 Sudeste 30 Este 0 -- -- 81
2020-03-22 14:00:00 16.6 8 Sudeste 32 Sur 0 -- -- 77
2020-03-22 13:00:00 16.6 9 Sudeste 27 Sur 0 -- -- 75
2020-03-22 12:00:00 16.4 9 Sudeste 26 Sur 0 -- -- 78
2020-03-22 11:00:00 16.7 9 Sudeste 24 Sudeste 0 -- -- 75
2020-03-22 10:00:00 15.6 9 Sudeste 22 Este 0 -- -- 73
2020-03-22 09:00:00 14.3 9 Sudeste 21 Sudeste 0 -- -- 80
2020-03-22 08:00:00 11.3 3 Sudoeste 8 Sur 0 -- -- 97
2020-03-22 07:00:00 9 2 Noroeste 4 Noroeste 0 -- -- 97
2020-03-22 06:00:00 9.1 0 Calma 5 Noroeste 0 -- -- 96
2020-03-22 05:00:00 9.5 0 Calma 8 Norte 0 -- -- 95
2020-03-22 04:00:00 9.3 0 Calma 6 Nordeste 0 -- -- 94
2020-03-22 03:00:00 11.4 3 Nordeste 15 Norte 0 -- -- 87
2020-03-22 02:00:00 9.5 4 Norte 10 Norte 0 -- -- 99
2020-03-22 01:00:00 9.8 0 Calma 2 Noroeste 0 -- -- 98
2020-03-22 00:00:00 9.2 0 Calma 3 Noroeste 0 -- -- 97
2020-03-21 23:00:00 9.3 0 Calma 5 Noroeste 0 -- -- 95
2020-03-21 22:00:00 9.9 0 Calma 4 Noroeste 0 -- -- 94
2020-03-21 21:00:00 11 0 Calma 12 Este 0 -- -- 92
2020-03-21 20:00:00 11.9 0 Calma 10 Sur 0 -- -- 93
2020-03-21 19:00:00 13.2 4 Sur 15 Sur 0 -- -- 88
2020-03-21 18:00:00 13.8 7 Sur 13 Sur 0 -- -- 84
2020-03-21 17:00:00 15.1 10 Sudeste 21 Sur 0 -- -- 80
2020-03-21 16:00:00 15.3 13 Sur 23 Sudeste 0 -- -- 76
2020-03-21 15:00:00 15.6 12 Sudeste 22 Sudeste 0 -- -- 75
2020-03-21 14:00:00 15.8 13 Sur 24 Sudeste 0 -- -- 73
2020-03-21 13:00:00 15.7 15 Sur 26 Sur 0 -- -- 71
2020-03-21 12:00:00 16.1 15 Sur 26 Sur 0 -- -- 60
2020-03-21 11:00:00 16.1 13 Sur 26 Sur 0 -- -- 61
2020-03-21 10:00:00 15.1 8 Este 17 Este 0 -- -- 63
2020-03-21 09:00:00 13.7 6 Este 15 Sudeste 0 -- -- 74
2020-03-21 08:00:00 10.4 0 Calma 12 Noroeste 0 -- -- 82
2020-03-21 07:00:00 10.1 5 Norte 17 Norte 0 -- -- 74
2020-03-21 06:00:00 9.2 3 Noroeste 11 Noroeste 0 -- -- 85
2020-03-21 05:00:00 8.3 0 Calma 9 Sur 0 -- -- 88
2020-03-21 04:00:00 7.3 0 Calma 4 Noroeste 0 -- -- 84
2020-03-21 03:00:00 7.6 2 Noroeste 5 Noroeste 0 -- -- 80
2020-03-21 02:00:00 7.7 0 Calma 5 Noroeste 0 -- -- 79
2020-03-21 01:00:00 8.1 2 Noroeste 5 Noroeste 0 -- -- 79
2020-03-21 00:00:00 8.7 3 Noroeste 6 Norte 0 -- -- 77
2020-03-20 23:00:00 10.2 3 Sudoeste 10 Sur 0 -- -- 76
2020-03-20 22:00:00 9.4 0 Calma 6 Nordeste 0 -- -- 81
2020-03-20 21:00:00 9.3 3 Noroeste 5 Noroeste 0 -- -- 87
2020-03-20 20:00:00 11.5 0 Calma 15 Sudeste 0 -- -- 85
2020-03-20 19:00:00 13.1 8 Sudeste 21 Este 0 -- -- 81
2020-03-20 18:00:00 13.7 6 Sudeste 21 Este 0 -- -- 78
2020-03-20 17:00:00 15 7 Sur 25 Sudoeste 0 -- -- 78
2020-03-20 16:00:00 14.9 11 Sur 33 Sur 0 -- -- 79
2020-03-20 15:00:00 15.4 13 Sur 32 Sur 0 -- -- 76
2020-03-20 14:00:00 15.4 12 Sur 28 Sur 0 -- -- 77
2020-03-20 13:00:00 15.5 12 Sur 28 Sur 0 -- -- 75
2020-03-20 12:00:00 15.6 12 Sur 25 Sur 0 -- -- 72
2020-03-20 11:00:00 14.6 12 Sur 26 Sur 0 -- -- 71
2020-03-20 10:00:00 14.6 10 Sur 22 Sur 0 -- -- 69
2020-03-20 09:00:00 12.8 8 Sur 18 Sur 0 -- -- 81
2020-03-20 08:00:00 8.5 0 Calma 4 Sur 0 -- -- 98
2020-03-20 07:00:00 7.3 0 Calma 4 Noroeste 0 -- -- 96
2020-03-20 06:00:00 8.2 0 Calma 2 Noroeste 0 -- -- 96
2020-03-20 05:00:00 8.4 0 Calma 5 Norte 0 -- -- 94
2020-03-20 04:00:00 8.9 0 Calma 5 Norte 0 -- -- 95
2020-03-20 03:00:00 8.8 0 Calma 4 Noroeste 0 -- -- 94
2020-03-20 02:00:00 8.7 0 Calma 5 Norte 0 -- -- 94
2020-03-20 01:00:00 9.4 0 Calma 9 Este 0 -- -- 91
2020-03-20 00:00:00 10.5 4 Sudeste 11 Este 0 -- -- 88
2020-03-19 23:00:00 9.4 0 Calma 5 Este 0 -- -- 95
2020-03-19 22:00:00 9 0 Calma 5 Norte 0 -- -- 92
2020-03-19 21:00:00 9.9 0 Calma 5 Norte 0 -- -- 90
2020-03-19 20:00:00 11.8 0 Calma 14 Sudeste 0 -- -- 83
2020-03-19 19:00:00 12.4 5 Sudeste 15 Sudeste 0 -- -- 82
2020-03-19 18:00:00 13.1 4 Sudeste 17 Sudeste 0 -- -- 80
2020-03-19 17:00:00 13.7 6 Sudeste 14 Sur 0 -- -- 78
2020-03-19 16:00:00 14.2 8 Sur 15 Sur 0 -- -- 76
2020-03-19 15:00:00 14.5 9 Sur 21 Sudeste 0 -- -- 76
2020-03-19 14:00:00 14.6 13 Sudeste 20 Sudeste 0 -- -- 77
2020-03-19 13:00:00 14.8 12 Sudeste 21 Sudeste 0 -- -- 77
2020-03-19 12:00:00 14.7 11 Sudeste 21 Sudeste 0 -- -- 78
2020-03-19 11:00:00 14.4 9 Sur 16 Sur 0 -- -- 80
2020-03-19 10:00:00 13.3 10 Sur 19 Sur 0 -- -- 84
2020-03-19 09:00:00 12.1 4 Sur 10 Sur 0 -- -- 91
2020-03-19 08:00:00 8.9 0 Calma 3 Norte 0 -- -- 100
2020-03-19 07:00:00 7.4 0 Calma 0 Calma 0 -- -- 99
2020-03-19 06:00:00 7.4 0 Calma 2 Norte 0 -- -- 99
2020-03-19 05:00:00 7.3 0 Calma 2 Noroeste 0 -- -- 99
2020-03-19 04:00:00 7.5 0 Calma 2 Noroeste 0 -- -- 98
2020-03-19 03:00:00 7.7 0 Calma 0 Calma 0 -- -- 98
2020-03-19 02:00:00 7.9 0 Calma 2 Noroeste 0 -- -- 98
2020-03-19 01:00:00 8.4 2 Noroeste 2 Noroeste 0 -- -- 97
2020-03-19 00:00:00 8.7 0 Calma 2 Noroeste 0 -- -- 97
2020-03-18 23:00:00 9.3 0 Calma 2 Noroeste 0 -- -- 96
2020-03-18 22:00:00 10.4 0 Calma 3 Sur 0 -- -- 95
2020-03-18 21:00:00 10.9 0 Calma 3 Noroeste 0 -- -- 95
2020-03-18 20:00:00 11.3 0 Calma 3 Norte 0 -- -- 94
2020-03-18 19:00:00 12.5 0 Calma 9 Sur 0 -- -- 90
2020-03-18 18:00:00 13.3 5 Sur 17 Sur 0 -- -- 89
2020-03-18 17:00:00 13.9 9 Sur 21 Sudeste 0 -- -- 86
2020-03-18 16:00:00 15 10 Sur 26 Sur 0 -- -- 80
2020-03-18 15:00:00 16.9 13 Sur 27 Sur 0 -- -- 59
2020-03-18 14:00:00 15.3 10 Sur 18 Sudeste 0 -- -- 78
2020-03-18 13:00:00 14.8 12 Sur 20 Sur 0 -- -- 79
2020-03-18 12:00:00 15.2 12 Sur 22 Sur 0 -- -- 73
2020-03-18 11:00:00 15.2 8 Sur 15 Sur 0 -- -- 67
2020-03-18 10:00:00 13.5 6 Sur 12 Sur 0 -- -- 78
2020-03-18 09:00:00 10.8 0 Calma 2 Noroeste 0 -- -- 98
2020-03-18 08:00:00 9.5 0 Calma 5 Noroeste 0 -- -- 97
2020-03-18 07:00:00 9 2 Sur 5 Noroeste 0 -- -- 97
2020-03-18 06:00:00 9.3 2 Noroeste 5 Sudeste 0 -- -- 96
2020-03-18 05:00:00 9.5 0 Calma 4 Noroeste 0 -- -- 96
2020-03-18 04:00:00 9.6 0 Calma 4 Noroeste 0 -- -- 96
2020-03-18 03:00:00 10.1 0 Calma 5 Noroeste 0 -- -- 96
2020-03-18 02:00:00 10.2 0 Calma 6 Norte 0 -- -- 95
2020-03-18 01:00:00 10.4 3 Noroeste 6 Noroeste 0 -- -- 92
2020-03-18 00:00:00 11.8 0 Calma 5 Norte 0 -- -- 90
2020-03-17 23:00:00 12.3 2 Noroeste 4 Noroeste 0 -- -- 85
2020-03-17 22:00:00 13.1 3 Noroeste 4 Norte 0 -- -- 80
2020-03-17 21:00:00 14.1 2 Noroeste 15 Sur 0 -- -- 75
2020-03-17 20:00:00 15.2 5 Sur 16 Sudeste 0 -- -- 67
2020-03-17 19:00:00 15.3 4 Sudeste 24 Este 0 -- -- 67
2020-03-17 18:00:00 15.9 8 Sur 23 Sudeste 0 -- -- 64
2020-03-17 17:00:00 17.1 8 Sudeste 30 Este 0 -- -- 62
2020-03-17 16:00:00 17.5 10 Sudeste 33 Sudeste 0 -- -- 62
2020-03-17 15:00:00 16.9 15 Sudeste 30 Este 0 -- -- 65
2020-03-17 14:00:00 16.2 12 Sudeste 35 Este 0 -- -- 69
2020-03-17 13:00:00 16.4 19 Sudeste 46 Sudeste 0.2 -- -- 70
2020-03-17 12:00:00 16 19 Sudeste 43 Sudeste 0 -- -- 73
2020-03-17 11:00:00 15.7 18 Sudeste 45 Este 0 -- -- 74
2020-03-17 10:00:00 15.3 19 Sudeste 44 Sudeste 0 -- -- 75
2020-03-17 09:00:00 15.2 18 Sudeste 43 Sudeste 0 -- -- 76
2020-03-17 08:00:00 14.7 16 Sudeste 36 Sudeste 0 -- -- 80
2020-03-17 07:00:00 14.2 16 Sudeste 45 Este 0 -- -- 83
2020-03-17 06:00:00 14.6 22 Sudeste 46 Sudeste 0 -- -- 80
2020-03-17 05:00:00 14.2 18 Sudeste 46 Este 0 -- -- 81
2020-03-17 04:00:00 14.1 19 Sudeste 49 Este 0 -- -- 80
2020-03-17 03:00:00 13.8 20 Sudeste 49 Este 0 -- -- 81
2020-03-17 02:00:00 14 20 Sudeste 50 Este 0 -- -- 78
2020-03-17 01:00:00 13.6 19 Sudeste 46 Este 0 -- -- 83
2020-03-17 00:00:00 13.3 21 Sudeste 44 Sudeste 0.2 -- -- 88
2020-03-16 23:00:00 13.3 24 Sudeste 48 Sudeste 0.2 -- -- 90
2020-03-16 22:00:00 13.3 20 Sudeste 46 Este 0 -- -- 91
2020-03-16 21:00:00 13 20 Sudeste 48 Sudeste 0.6 -- -- 92
2020-03-16 20:00:00 13.2 18 Sudeste 46 Este 0.4 -- -- 93
2020-03-16 19:00:00 13.4 19 Sudeste 40 Sudeste 0.4 -- -- 93
2020-03-16 18:00:00 13.4 16 Sudeste 40 Sudeste 0.2 -- -- 93
2020-03-16 17:00:00 13.4 16 Sudeste 36 Sur 4.8 -- -- 93
2020-03-16 16:00:00 13.4 14 Sudeste 37 Sudeste 5.8 -- -- 95
2020-03-16 15:00:00 13.4 15 Este 37 Sudeste 10.4 -- -- 97
2020-03-16 14:00:00 13.3 19 Este 44 Sudeste 4.2 -- -- 95
2020-03-16 13:00:00 13.4 15 Este 50 Sudeste 5.4 -- -- 96
2020-03-16 12:00:00 13.6 22 Sudeste 46 Este 1.8 -- -- 93
2020-03-16 11:00:00 14.5 21 Sudeste 51 Sudeste 0 -- -- 83
2020-03-16 10:00:00 14.5 23 Sudeste 48 Sudeste 0 -- -- 81
2020-03-16 09:00:00 13.7 18 Sudeste 46 Este 0 -- -- 83
2020-03-16 08:00:00 13.3 17 Sudeste 36 Este 0 -- -- 82
2020-03-16 07:00:00 13.2 15 Sudeste 35 Sudeste 0 -- -- 83
2020-03-16 06:00:00 13.3 15 Sudeste 31 Sudeste 0 -- -- 82
2020-03-16 05:00:00 13.2 10 Sudeste 23 Sudeste 0 -- -- 85
2020-03-16 04:00:00 13.5 12 Sudeste 29 Este 0 -- -- 87
2020-03-16 03:00:00 13.7 9 Este 24 Sudeste 0 -- -- 89
2020-03-16 02:00:00 13.7 5 Sudeste 20 Sur 0 -- -- 87
2020-03-16 01:00:00 13.7 7 Sur 24 Sur 0 -- -- 87
2020-03-16 00:00:00 13.7 10 Sur 18 Sudeste 0 -- -- 89
2020-03-15 23:00:00 13.8 11 Sur 21 Sur 0 -- -- 91
2020-03-15 22:00:00 13.6 7 Sudeste 16 Sudeste 0 -- -- 88
2020-03-15 21:00:00 13.7 6 Sudeste 14 Sur 0 -- -- 89
2020-03-15 20:00:00 13.1 5 Sur 10 Sudeste 0 -- -- 89
2020-03-15 19:00:00 13.6 5 Sur 18 Sur 0 -- -- 86
2020-03-15 18:00:00 14.3 6 Sur 22 Sudeste 0 -- -- 84
2020-03-15 17:00:00 15.2 14 Sudeste 23 Sudeste 0 -- -- 81
2020-03-15 16:00:00 15.8 8 Sudeste 22 Sudeste 0 -- -- 80
2020-03-15 15:00:00 16 7 Sudeste 19 Sudeste 0 -- -- 80
2020-03-15 14:00:00 15.7 5 Sudeste 19 Sur 0 -- -- 79
2020-03-15 13:00:00 16.6 9 Sur 16 Sur 0 -- -- 75
2020-03-15 12:00:00 16.4 7 Sudeste 16 Sur 0 -- -- 75
2020-03-15 11:00:00 15.5 8 Sur 14 Sur 0 -- -- 76
2020-03-15 10:00:00 14.4 4 Sur 9 Sudeste 0 -- -- 84
2020-03-15 09:00:00 11.5 2 Sur 4 Sudeste 0 -- -- 99
2020-03-15 08:00:00 9.3 0 Calma 3 Noroeste 0 -- -- 99
2020-03-15 07:00:00 8.6 0 Calma 3 Noroeste 0 -- -- 98
2020-03-15 06:00:00 9.1 0 Calma 2 Noroeste 0 -- -- 98
2020-03-15 05:00:00 9.1 0 Calma 3 Noroeste 0 -- -- 97
2020-03-15 04:00:00 9.6 2 Noroeste 3 Noroeste 0 -- -- 97
2020-03-15 03:00:00 9.7 0 Calma 2 Noroeste 0 -- -- 97
2020-03-15 02:00:00 9.2 0 Calma 2 Norte 0 -- -- 98
2020-03-15 01:00:00 8.8 0 Calma 3 Noroeste 0 -- -- 96
2020-03-15 00:00:00 9.1 0 Calma 4 Noroeste 0 -- -- 96
2020-03-14 23:00:00 9.5 0 Calma 4 Norte 0 -- -- 95
2020-03-14 22:00:00 10 2 Norte 3 Noroeste 0 -- -- 94
2020-03-14 21:00:00 10.4 0 Calma 4 Noroeste 0 -- -- 91
2020-03-14 20:00:00 11 0 Calma 4 Noroeste 0 -- -- 88
2020-03-14 19:00:00 12.9 2 Noroeste 6 Sur 0 -- -- 80
2020-03-14 18:00:00 14.9 5 Sur 14 Sur 0 -- -- 73
2020-03-14 17:00:00 15.6 6 Sur 13 Sur 0 -- -- 69
2020-03-14 16:00:00 16 9 Sur 13 Sudoeste 0 -- -- 73
2020-03-14 15:00:00 16.4 9 Sur 14 Sur 0 -- -- 73
2020-03-14 14:00:00 16.7 8 Sudeste 16 Sudeste 0 -- -- 70
2020-03-14 13:00:00 16.8 8 Sur 16 Sur 0 -- -- 71
2020-03-14 12:00:00 16.3 8 Sur 15 Sudeste 0 -- -- 74
2020-03-14 11:00:00 15.8 7 Sur 13 Sur 0 -- -- 74
2020-03-14 10:00:00 15.1 2 Sudoeste 13 Noroeste 0 -- -- 74
2020-03-14 09:00:00 14.1 0 Calma 10 Sur 0 -- -- 81
2020-03-14 08:00:00 13.7 0 Calma 19 Norte 0 -- -- 81
2020-03-14 07:00:00 12 8 Norte 15 Norte 0 -- -- 90
2020-03-14 06:00:00 10.5 0 Calma 3 Noroeste 0 -- -- 95
2020-03-14 05:00:00 10.4 2 Noroeste 7 Norte 0 -- -- 92
2020-03-14 04:00:00 12.1 4 Norte 12 Noroeste 0 -- -- 90
2020-03-14 03:00:00 12.2 6 Noroeste 13 Noroeste 0 -- -- 92
2020-03-14 02:00:00 12.5 6 Noroeste 13 Noroeste 0 -- -- 90
2020-03-14 01:00:00 12.7 6 Noroeste 15 Noroeste 0 -- -- 90
2020-03-14 00:00:00 13 8 Noroeste 15 Noroeste 0 -- -- 91
2020-03-13 23:00:00 13 8 Noroeste 17 Noroeste 0 -- -- 91
2020-03-13 22:00:00 13.1 8 Norte 18 Norte 0 -- -- 90
2020-03-13 21:00:00 13.3 11 Noroeste 22 Noroeste 0 -- -- 90
2020-03-13 20:00:00 13.5 10 Norte 19 Noroeste 0 -- -- 89
2020-03-13 19:00:00 13.7 8 Noroeste 26 Noroeste 0 -- -- 87
2020-03-13 18:00:00 14.2 14 Norte 31 Norte 0 -- -- 85
2020-03-13 17:00:00 15.7 11 Norte 22 Norte 0 -- -- 80
2020-03-13 16:00:00 16.5 12 Noroeste 23 Noroeste 0 -- -- 77
2020-03-13 15:00:00 17.1 11 Noroeste 26 Norte 0 -- -- 73
2020-03-13 14:00:00 17 7 Norte 17 Norte 0 -- -- 76
2020-03-13 13:00:00 17.8 5 Norte 18 Norte 0 -- -- 71
2020-03-13 12:00:00 16.7 6 Norte 18 Norte 0 -- -- 73
2020-03-13 11:00:00 16 10 Norte 20 Norte 0 -- -- 79
2020-03-13 10:00:00 13.9 5 Norte 13 Norte 0 -- -- 89
2020-03-13 09:00:00 11.8 3 Sur 5 Sur 0 -- -- 99
2020-03-13 08:00:00 10.2 0 Calma 5 Norte 0 -- -- 99
2020-03-13 07:00:00 9.2 0 Calma 3 Norte 0 -- -- 98
2020-03-13 06:00:00 9.2 0 Calma 4 Noroeste 0 -- -- 98
2020-03-13 05:00:00 9.4 0 Calma 4 Noroeste 0 -- -- 98
2020-03-13 04:00:00 9.7 2 Nordeste 5 Norte 0 -- -- 98
2020-03-13 03:00:00 9.9 0 Calma 6 Noroeste 0 -- -- 97
2020-03-13 02:00:00 9.9 3 Noroeste 5 Noroeste 0 -- -- 98
2020-03-13 01:00:00 9.8 0 Calma 3 Noroeste 0 -- -- 96
2020-03-13 00:00:00 10.4 0 Calma 3 Noroeste 0 -- -- 96
2020-03-12 23:00:00 11 2 Noroeste 4 Noroeste 0 -- -- 96
2020-03-12 22:00:00 11.6 2 Noroeste 4 Noroeste 0 -- -- 94
2020-03-12 21:00:00 12 2 Noroeste 4 Norte 0 -- -- 96
2020-03-12 20:00:00 12 0 Calma 6 Oeste 0 -- -- 93
2020-03-12 19:00:00 13.3 0 Calma 13 Oeste 0 -- -- 89
2020-03-12 18:00:00 14.6 5 Oeste 11 Noroeste 0 -- -- 85
2020-03-12 17:00:00 15.6 4 Norte 12 Noroeste 0 -- -- 82
2020-03-12 16:00:00 14.3 3 Este 13 Sudoeste 0 -- -- 89
2020-03-12 15:00:00 14.5 6 Sudoeste 18 Oeste 0 -- -- 87
2020-03-12 14:00:00 16.4 7 Sudoeste 16 Sudeste 0 -- -- 78
2020-03-12 13:00:00 17.8 9 Sudeste 14 Sudeste 0 -- -- 72
2020-03-12 12:00:00 16.9 3 Norte 15 Oeste 0 -- -- 66
2020-03-12 11:00:00 15.5 6 Oeste 16 Oeste 0 -- -- 81
2020-03-12 10:00:00 15.4 7 Sur 13 Sur 0 -- -- 76
2020-03-12 09:00:00 14.1 3 Sur 6 Sur 0 -- -- 75
2020-03-12 08:00:00 10.5 2 Norte 4 Noroeste 0 -- -- 86
2020-03-12 07:00:00 9.7 0 Calma 4 Norte 0 -- -- 86
2020-03-12 06:00:00 10.1 2 Noroeste 3 Noroeste 0 -- -- 80
2020-03-12 05:00:00 11 0 Calma 3 Noroeste 0 -- -- 78
2020-03-12 04:00:00 11.8 0 Calma 9 Noroeste 0 -- -- 74
2020-03-12 03:00:00 12.6 5 Noroeste 13 Noroeste 0 -- -- 70
2020-03-12 02:00:00 11.4 3 Noroeste 6 Noroeste 0 -- -- 80
2020-03-12 01:00:00 10.6 2 Noroeste 5 Norte 0 -- -- 84
2020-03-12 00:00:00 10.5 3 Norte 5 Noroeste 0 -- -- 81
2020-03-11 23:00:00 10.3 0 Calma 4 Norte 0 -- -- 83
2020-03-11 22:00:00 10.5 0 Calma 4 Norte 0 -- -- 84
2020-03-11 21:00:00 10.5 0 Calma 4 Norte 0 -- -- 82
2020-03-11 20:00:00 11.1 0 Calma 4 Norte 0 -- -- 86
2020-03-11 19:00:00 12.3 3 Noroeste 9 Oeste 0 -- -- 87
2020-03-11 18:00:00 13.8 0 Calma 10 Sur 0 -- -- 86
2020-03-11 17:00:00 15.3 6 Sur 13 Sur 0 -- -- 82
2020-03-11 16:00:00 15.9 3 Sur 14 Sur 0 -- -- 77
2020-03-11 15:00:00 15.5 8 Sur 13 Sur 0 -- -- 79
2020-03-11 14:00:00 15.9 6 Sudeste 16 Sur 0 -- -- 79
2020-03-11 13:00:00 15.4 12 Sur 19 Sur 0 -- -- 80
2020-03-11 12:00:00 15.5 11 Sur 21 Sur 0 -- -- 78
2020-03-11 11:00:00 15.9 12 Sur 19 Sur 0 -- -- 73
2020-03-11 10:00:00 15.3 9 Sur 14 Sur 0 -- -- 70
2020-03-11 09:00:00 12.7 2 Sur 6 Sur 0 -- -- 90
2020-03-11 08:00:00 8.9 3 Norte 6 Norte 0 -- -- 99
2020-03-11 07:00:00 7.9 0 Calma 4 Noroeste 0 -- -- 98
2020-03-11 06:00:00 8.1 2 Norte 6 Noroeste 0 -- -- 98
2020-03-11 05:00:00 8.3 2 Norte 6 Sur 0 -- -- 97
2020-03-11 04:00:00 8.4 4 Noroeste 8 Noroeste 0 -- -- 98
2020-03-11 03:00:00 8.6 0 Calma 2 Noroeste 0 -- -- 96
2020-03-11 02:00:00 9.1 0 Calma 4 Noroeste 0 -- -- 96
2020-03-11 01:00:00 9.8 0 Calma 7 Noroeste 0 -- -- 96
2020-03-11 00:00:00 9.2 2 Sur 4 Norte 0 -- -- 95
2020-03-10 23:00:00 9.2 0 Calma 4 Sur 0 -- -- 94
2020-03-10 22:00:00 9.7 2 Noroeste 4 Noroeste 0 -- -- 92
2020-03-10 21:00:00 10.3 3 Norte 5 Noroeste 0 -- -- 90
2020-03-10 20:00:00 11.1 0 Calma 8 Norte 0 -- -- 86
2020-03-10 19:00:00 13.2 4 Norte 14 Norte 0 -- -- 79
2020-03-10 18:00:00 13.7 7 Norte 18 Norte 0 -- -- 76
2020-03-10 17:00:00 14.2 9 Norte 18 Norte 0 -- -- 68
2020-03-10 16:00:00 14.2 10 Norte 26 Norte 0 -- -- 65
2020-03-10 15:00:00 14.3 13 Norte 28 Norte 0 -- -- 71
2020-03-10 14:00:00 14.9 12 Norte 21 Nordeste 0 -- -- 57
2020-03-10 13:00:00 15.4 8 Norte 18 Norte 0 -- -- 53
2020-03-10 12:00:00 14.9 7 Norte 18 Sur 0 -- -- 56
2020-03-10 11:00:00 13.9 8 Sur 15 Sur 0 -- -- 62
2020-03-10 10:00:00 13.3 8 Sur 13 Sur 0 -- -- 62
2020-03-10 09:00:00 12.6 3 Nordeste 17 Nordeste 0 -- -- 58
2020-03-10 08:00:00 10.6 9 Norte 21 Nordeste 0 -- -- 62
2020-03-10 07:00:00 9.1 6 Norte 14 Norte 0 -- -- 65
2020-03-10 06:00:00 10.4 8 Norte 25 Nordeste 0 -- -- 59
2020-03-10 05:00:00 10.4 13 Nordeste 29 Norte 0 -- -- 59
2020-03-10 04:00:00 11.1 12 Norte 22 Norte 0 -- -- 62
2020-03-10 03:00:00 11.1 5 Norte 11 Sur 0 -- -- 84
2020-03-10 02:00:00 12.9 7 Sudeste 30 Sudeste 0 -- -- 80
2020-03-10 01:00:00 12.9 8 Sudeste 27 Sur 0 -- -- 78
2020-03-10 00:00:00 12.7 9 Sudeste 23 Sur 0 -- -- 80
2020-03-09 23:00:00 11 2 Noroeste 12 Este 0 -- -- 82
2020-03-09 22:00:00 11.6 3 Noroeste 16 Norte 0 -- -- 80
2020-03-09 21:00:00 12.3 3 Sur 22 Sudeste 0 -- -- 76
2020-03-09 20:00:00 12.8 5 Sudeste 13 Este 0 -- -- 74
2020-03-09 19:00:00 14.2 2 Sudoeste 24 Sur 0 -- -- 68
2020-03-09 18:00:00 16.4 12 Sur 27 Noroeste 0 -- -- 58
2020-03-09 17:00:00 18.9 12 Norte 36 Noroeste 0 -- -- 39
2020-03-09 16:00:00 19.7 12 Norte 31 Norte 0 -- -- 37
2020-03-09 15:00:00 18.9 16 Norte 35 Norte 0 -- -- 39
2020-03-09 14:00:00 19.2 10 Norte 34 Noroeste 0 -- -- 40
2020-03-09 13:00:00 17.5 17 Noroeste 37 Noroeste 0 -- -- 41
2020-03-09 12:00:00 17.2 15 Noroeste 31 Noroeste 0 -- -- 43
2020-03-09 11:00:00 15.4 13 Noroeste 26 Noroeste 0 -- -- 48
2020-03-09 10:00:00 14.8 4 Oeste 17 Sudoeste 0 -- -- 52
2020-03-09 09:00:00 13.3 6 Oeste 20 Noroeste 0 -- -- 58
2020-03-09 08:00:00 12.1 11 Noroeste 32 Noroeste 0 -- -- 61
2020-03-09 07:00:00 11.6 9 Norte 22 Norte 0 -- -- 63
2020-03-09 06:00:00 8.2 4 Norte 9 Norte 0 -- -- 94
2020-03-09 05:00:00 8.7 2 Noroeste 3 Noroeste 0 -- -- 96
2020-03-09 04:00:00 8.7 0 Calma 5 Norte 0 -- -- 96
2020-03-09 03:00:00 9.2 0 Calma 3 Noroeste 0 -- -- 95
2020-03-09 02:00:00 9.7 0 Calma 4 Noroeste 0 -- -- 93
2020-03-09 01:00:00 10.2 0 Calma 8 Noroeste 0 -- -- 89
2020-03-09 00:00:00 12.1 6 Noroeste 11 Noroeste 0 -- -- 86
2020-03-08 23:00:00 10.2 0 Calma 4 Norte 0 -- -- 92
2020-03-08 22:00:00 10.3 0 Calma 5 Norte 0 -- -- 90
2020-03-08 21:00:00 11.5 3 Norte 6 Norte 0 -- -- 85
2020-03-08 20:00:00 12.1 3 Noroeste 12 Noroeste 0 -- -- 84
2020-03-08 19:00:00 13.6 6 Norte 18 Norte 0 -- -- 79
2020-03-08 18:00:00 14.2 8 Norte 24 Norte 0 -- -- 74
2020-03-08 17:00:00 15.1 10 Norte 22 Norte 0 -- -- 71
2020-03-08 16:00:00 15.6 6 Norte 18 Sudoeste 0 -- -- 63
2020-03-08 15:00:00 16.2 6 Sudoeste 16 Sur 0 -- -- 57
2020-03-08 14:00:00 15.6 5 Sur 16 Sur 0 -- -- 60
2020-03-08 13:00:00 15 5 Oeste 20 Sudoeste 0 -- -- 55
2020-03-08 12:00:00 15.8 9 Noroeste 17 Noroeste 0 -- -- 56
2020-03-08 11:00:00 14.9 7 Sudoeste 15 Oeste 0 -- -- 57
2020-03-08 10:00:00 14.8 6 Sudoeste 12 Sudoeste 0 -- -- 55
2020-03-08 09:00:00 12.7 3 Norte 9 Este 0 -- -- 65
2020-03-08 08:00:00 7.9 2 Sur 11 Norte 0 -- -- 84
2020-03-08 07:00:00 6.9 4 Norte 9 Noroeste 0 -- -- 88
2020-03-08 06:00:00 8.3 0 Calma 9 Norte 0 -- -- 83
2020-03-08 05:00:00 8.9 3 Noroeste 13 Norte 0 -- -- 83
2020-03-08 04:00:00 10.8 0 Calma 13 Nordeste 0 -- -- 75
2020-03-08 03:00:00 11.6 8 Norte 14 Noroeste 0 -- -- 71
2020-03-08 02:00:00 11.4 5 Noroeste 11 Noroeste 0 -- -- 76
2020-03-08 01:00:00 11.7 2 Sur 17 Sudeste 0 -- -- 80
2020-03-08 00:00:00 12.3 8 Este 21 Sudeste 0 -- -- 82